DETGA EDRJ-EDRJ
Flight info
| Callsign | DETGA |
|---|---|
| Flight time | N/A |
| Altitude | 3000 |
| Route | VFR |
| Aircraft | C172/L-VGD/A |
Departure
| Time | 2026-05-06 17:30 |
|---|---|
| Airport | Saarlouis-Düren Airfield (EDRJ) |
Arrival
| Time | N/A |
|---|---|
| Airport | Saarlouis-Düren Airfield (EDRJ) |
| Time | Latitude | Longitude | Altitude | Speed | Heading |
|---|---|---|---|---|---|
| 2026-05-06 17:22 | 49.31296 | 6.67166 | 1130 ft | 0 kts | 343° |
| 2026-05-06 17:26 | 49.31299 | 6.67166 | 1130 ft | 2 kts | 33° |
| 2026-05-06 17:26 | 49.31276 | 6.67211 | 1127 ft | 10 kts | 136° |
| 2026-05-06 17:26 | 49.31261 | 6.67292 | 1122 ft | 12 kts | 70° |
| 2026-05-06 17:26 | 49.31282 | 6.67421 | 1124 ft | 13 kts | 68° |
| 2026-05-06 17:27 | 49.31302 | 6.67515 | 1126 ft | 5 kts | 74° |
| 2026-05-06 17:27 | 49.31310 | 6.67554 | 1127 ft | 2 kts | 79° |
| 2026-05-06 17:27 | 49.31308 | 6.67569 | 1126 ft | 4 kts | 108° |
| 2026-05-06 17:27 | 49.31298 | 6.67582 | 1121 ft | 0 kts | 170° |
| 2026-05-06 17:28 | 49.31287 | 6.67584 | 1126 ft | 2 kts | 176° |
| 2026-05-06 17:28 | 49.31272 | 6.67577 | 1126 ft | 3 kts | 243° |
| 2026-05-06 17:28 | 49.31245 | 6.67425 | 1119 ft | 38 kts | 254° |
| 2026-05-06 17:28 | 49.31122 | 6.66822 | 1167 ft | 74 kts | 252° |
| 2026-05-06 17:29 | 49.30909 | 6.66013 | 1284 ft | 91 kts | 247° |
| 2026-05-06 17:29 | 49.30577 | 6.65168 | 1496 ft | 92 kts | 241° |
| 2026-05-06 17:29 | 49.30465 | 6.64230 | 1604 ft | 94 kts | 286° |
| 2026-05-06 17:29 | 49.30927 | 6.63446 | 1621 ft | 105 kts | 321° |
| 2026-05-06 17:30 | 49.31504 | 6.62728 | 1650 ft | 106 kts | 317° |
| 2026-05-06 17:30 | 49.32028 | 6.62006 | 1755 ft | 96 kts | 316° |
| 2026-05-06 17:30 | 49.32486 | 6.61307 | 1880 ft | 92 kts | 312° |
| 2026-05-06 17:30 | 49.32912 | 6.60588 | 1992 ft | 92 kts | 310° |
| 2026-05-06 17:31 | 49.33335 | 6.59805 | 1998 ft | 98 kts | 309° |
| 2026-05-06 17:31 | 49.33754 | 6.58963 | 1999 ft | 103 kts | 307° |
| 2026-05-06 17:31 | 49.34165 | 6.58073 | 2002 ft | 102 kts | 305° |
| 2026-05-06 17:31 | 49.34550 | 6.57167 | 2006 ft | 101 kts | 303° |
| 2026-05-06 17:32 | 49.34913 | 6.56235 | 2007 ft | 104 kts | 301° |
| 2026-05-06 17:32 | 49.35267 | 6.55249 | 2009 ft | 106 kts | 299° |
| 2026-05-06 17:32 | 49.35602 | 6.54233 | 2013 ft | 108 kts | 297° |
| 2026-05-06 17:32 | 49.36132 | 6.53557 | 1995 ft | 105 kts | 354° |
| 2026-05-06 17:33 | 49.36703 | 6.54206 | 1992 ft | 115 kts | 67° |
| 2026-05-06 17:33 | 49.36466 | 6.55360 | 1995 ft | 122 kts | 131° |
| 2026-05-06 17:33 | 49.35863 | 6.56296 | 2005 ft | 124 kts | 131° |
| 2026-05-06 17:33 | 49.35259 | 6.57257 | 2006 ft | 125 kts | 132° |
| 2026-05-06 17:34 | 49.34702 | 6.58268 | 2012 ft | 123 kts | 117° |
| 2026-05-06 17:34 | 49.34339 | 6.59448 | 2009 ft | 122 kts | 112° |
| 2026-05-06 17:34 | 49.33979 | 6.60635 | 2009 ft | 123 kts | 112° |
| 2026-05-06 17:34 | 49.33617 | 6.61833 | 2007 ft | 126 kts | 112° |
| 2026-05-06 17:35 | 49.33423 | 6.63080 | 1989 ft | 118 kts | 71° |
| 2026-05-06 17:35 | 49.33889 | 6.64035 | 1997 ft | 112 kts | 38° |
| 2026-05-06 17:35 | 49.34475 | 6.64780 | 2068 ft | 109 kts | 33° |
| 2026-05-06 17:36 | 49.35731 | 6.65942 | 2218 ft | 104 kts | 18° |
| 2026-05-06 17:36 | 49.36397 | 6.66324 | 2293 ft | 100 kts | 11° |
| 2026-05-06 17:36 | 49.37092 | 6.66521 | 2289 ft | 101 kts | 2° |
| 2026-05-06 17:36 | 49.37770 | 6.66541 | 2301 ft | 102 kts | 355° |
| 2026-05-06 17:37 | 49.38386 | 6.66122 | 2295 ft | 102 kts | 313° |
| 2026-05-06 17:37 | 49.38839 | 6.65299 | 2301 ft | 101 kts | 314° |
| 2026-05-06 17:37 | 49.39306 | 6.64485 | 2302 ft | 102 kts | 314° |
| 2026-05-06 17:37 | 49.39779 | 6.63660 | 2308 ft | 104 kts | 314° |
| 2026-05-06 17:38 | 49.40251 | 6.62847 | 2299 ft | 100 kts | 314° |
| 2026-05-06 17:38 | 49.40723 | 6.62044 | 2305 ft | 102 kts | 314° |
| 2026-05-06 17:38 | 49.41202 | 6.61235 | 2300 ft | 102 kts | 314° |
| 2026-05-06 17:38 | 49.41686 | 6.60414 | 2300 ft | 106 kts | 314° |
| 2026-05-06 17:39 | 49.42177 | 6.59574 | 2304 ft | 105 kts | 314° |
| 2026-05-06 17:39 | 49.42662 | 6.58735 | 2303 ft | 105 kts | 312° |
| 2026-05-06 17:39 | 49.43170 | 6.57933 | 2301 ft | 105 kts | 316° |
| 2026-05-06 17:39 | 49.43686 | 6.57139 | 2306 ft | 105 kts | 316° |
| 2026-05-06 17:40 | 49.44200 | 6.56346 | 2308 ft | 105 kts | 316° |
| 2026-05-06 17:40 | 49.44717 | 6.55549 | 2312 ft | 107 kts | 316° |
| 2026-05-06 17:40 | 49.45244 | 6.54734 | 2311 ft | 108 kts | 317° |
| 2026-05-06 17:40 | 49.45771 | 6.53915 | 2316 ft | 108 kts | 316° |
| 2026-05-06 17:41 | 49.46319 | 6.53119 | 2307 ft | 108 kts | 322° |
| 2026-05-06 17:41 | 49.46907 | 6.52412 | 2309 ft | 108 kts | 323° |
| 2026-05-06 17:41 | 49.47493 | 6.51707 | 2308 ft | 106 kts | 323° |
| 2026-05-06 17:41 | 49.48074 | 6.51006 | 2306 ft | 105 kts | 323° |
| 2026-05-06 17:42 | 49.48649 | 6.50313 | 2302 ft | 104 kts | 323° |
| 2026-05-06 17:42 | 49.49211 | 6.49638 | 2305 ft | 102 kts | 323° |
| 2026-05-06 17:42 | 49.49766 | 6.48969 | 2301 ft | 101 kts | 323° |
| 2026-05-06 17:42 | 49.50332 | 6.48332 | 2302 ft | 100 kts | 326° |
| 2026-05-06 17:43 | 49.50910 | 6.47732 | 2305 ft | 101 kts | 327° |
| 2026-05-06 17:43 | 49.51501 | 6.47146 | 2309 ft | 101 kts | 328° |
| 2026-05-06 17:43 | 49.52086 | 6.46560 | 2308 ft | 102 kts | 328° |
| 2026-05-06 17:43 | 49.52682 | 6.45968 | 2305 ft | 101 kts | 329° |
| 2026-05-06 17:44 | 49.53280 | 6.45403 | 2306 ft | 101 kts | 330° |
| 2026-05-06 17:44 | 49.53905 | 6.44909 | 2312 ft | 102 kts | 338° |
| 2026-05-06 17:44 | 49.54576 | 6.44526 | 2312 ft | 102 kts | 342° |
| 2026-05-06 17:44 | 49.55285 | 6.44377 | 2314 ft | 104 kts | 358° |
| 2026-05-06 17:45 | 49.56004 | 6.44526 | 2309 ft | 105 kts | 7° |
| 2026-05-06 17:45 | 49.56720 | 6.44790 | 2308 ft | 106 kts | 10° |
| 2026-05-06 17:45 | 49.57426 | 6.45065 | 2309 ft | 104 kts | 11° |
| 2026-05-06 17:45 | 49.58113 | 6.45422 | 2314 ft | 105 kts | 15° |
| 2026-05-06 17:46 | 49.58809 | 6.45802 | 2311 ft | 107 kts | 15° |
| 2026-05-06 17:46 | 49.59504 | 6.46185 | 2311 ft | 107 kts | 14° |
| 2026-05-06 17:46 | 49.59966 | 6.46441 | 2314 ft | 106 kts | 15° |
| 2026-05-06 17:46 | 49.60641 | 6.46811 | 2308 ft | 107 kts | 15° |
| 2026-05-06 17:47 | 49.61328 | 6.47229 | 2314 ft | 106 kts | 17° |
| 2026-05-06 17:47 | 49.62027 | 6.47649 | 2316 ft | 109 kts | 17° |
| 2026-05-06 17:47 | 49.62734 | 6.48074 | 2314 ft | 108 kts | 17° |
| 2026-05-06 17:47 | 49.63650 | 6.48625 | 2313 ft | 105 kts | 17° |
| 2026-05-06 17:48 | 49.64109 | 6.48927 | 2314 ft | 108 kts | 21° |
| 2026-05-06 17:48 | 49.64782 | 6.49430 | 2310 ft | 107 kts | 21° |
| 2026-05-06 17:48 | 49.65442 | 6.49918 | 2377 ft | 102 kts | 20° |
| 2026-05-06 17:48 | 49.66059 | 6.50377 | 2472 ft | 96 kts | 21° |
| 2026-05-06 17:49 | 49.66629 | 6.50863 | 2566 ft | 93 kts | 24° |
| 2026-05-06 17:49 | 49.67184 | 6.51351 | 2646 ft | 89 kts | 24° |
| 2026-05-06 17:49 | 49.67714 | 6.51817 | 2759 ft | 86 kts | 24° |
| 2026-05-06 17:49 | 49.68229 | 6.52257 | 2853 ft | 84 kts | 24° |
| 2026-05-06 17:50 | 49.68746 | 6.52689 | 2959 ft | 86 kts | 24° |
| 2026-05-06 17:50 | 49.69273 | 6.53125 | 3002 ft | 88 kts | 23° |
| 2026-05-06 17:50 | 49.69817 | 6.53585 | 3005 ft | 90 kts | 24° |
| 2026-05-06 17:50 | 49.70383 | 6.54057 | 3016 ft | 96 kts | 23° |
| 2026-05-06 17:51 | 49.70988 | 6.54547 | 3011 ft | 99 kts | 23° |
| 2026-05-06 17:51 | 49.71597 | 6.55035 | 3015 ft | 98 kts | 24° |
| 2026-05-06 17:51 | 49.72211 | 6.55514 | 3012 ft | 99 kts | 23° |
| 2026-05-06 17:51 | 49.72828 | 6.55983 | 3009 ft | 99 kts | 23° |
| 2026-05-06 17:52 | 49.73452 | 6.56467 | 3012 ft | 101 kts | 23° |
| 2026-05-06 17:52 | 49.74089 | 6.56959 | 2997 ft | 103 kts | 23° |
| 2026-05-06 17:52 | 49.74738 | 6.57442 | 2996 ft | 104 kts | 23° |
| 2026-05-06 17:52 | 49.75382 | 6.57937 | 2996 ft | 103 kts | 23° |
| 2026-05-06 17:53 | 49.76020 | 6.58438 | 2999 ft | 104 kts | 23° |
| 2026-05-06 17:53 | 49.76672 | 6.58927 | 3000 ft | 104 kts | 22° |
| 2026-05-06 17:53 | 49.77276 | 6.59473 | 2987 ft | 105 kts | 51° |
| 2026-05-06 17:53 | 49.77180 | 6.60696 | 2776 ft | 127 kts | 120° |
| 2026-05-06 17:54 | 49.76650 | 6.61748 | 2640 ft | 118 kts | 130° |
| 2026-05-06 17:54 | 49.75974 | 6.62426 | 2466 ft | 119 kts | 169° |
| 2026-05-06 17:54 | 49.75157 | 6.62288 | 2395 ft | 124 kts | 199° |
| 2026-05-06 17:54 | 49.74316 | 6.61923 | 2359 ft | 127 kts | 198° |
| 2026-05-06 17:55 | 49.73457 | 6.61558 | 2311 ft | 129 kts | 197° |
| 2026-05-06 17:55 | 49.72582 | 6.61196 | 2261 ft | 131 kts | 198° |
| 2026-05-06 17:55 | 49.71704 | 6.60841 | 2214 ft | 131 kts | 198° |
| 2026-05-06 17:55 | 49.70817 | 6.60489 | 2174 ft | 132 kts | 196° |
| 2026-05-06 17:56 | 49.69926 | 6.60144 | 2116 ft | 132 kts | 196° |
| 2026-05-06 17:56 | 49.69036 | 6.59810 | 2065 ft | 131 kts | 196° |
| 2026-05-06 17:56 | 49.68144 | 6.59484 | 2009 ft | 132 kts | 195° |
| 2026-05-06 17:56 | 49.67282 | 6.59173 | 1960 ft | 131 kts | 196° |
| 2026-05-06 17:57 | 49.66393 | 6.58942 | 1921 ft | 127 kts | 188° |
| 2026-05-06 17:57 | 49.65527 | 6.58758 | 1825 ft | 130 kts | 194° |
| 2026-05-06 17:57 | 49.64647 | 6.58385 | 1703 ft | 127 kts | 198° |
| 2026-05-06 17:57 | 49.63781 | 6.58329 | 1714 ft | 117 kts | 187° |
| 2026-05-06 17:58 | 49.63100 | 6.57776 | 1675 ft | 116 kts | 238° |
| 2026-05-06 17:58 | 49.62899 | 6.56609 | 1605 ft | 110 kts | 279° |
| 2026-05-06 17:58 | 49.63155 | 6.55566 | 1628 ft | 106 kts | 303° |
| 2026-05-06 17:58 | 49.63655 | 6.54700 | 1567 ft | 108 kts | 322° |
| 2026-05-06 17:59 | 49.64319 | 6.54168 | 1542 ft | 109 kts | 341° |
| 2026-05-06 17:59 | 49.65055 | 6.54006 | 1483 ft | 102 kts | 343° |
| 2026-05-06 17:59 | 49.65667 | 6.53477 | 1312 ft | 98 kts | 332° |
| 2026-05-06 17:59 | 49.66283 | 6.53411 | 1152 ft | 89 kts | 13° |
| 2026-05-06 18:00 | 49.66823 | 6.53768 | 988 ft | 81 kts | 22° |
| 2026-05-06 18:00 | 49.67275 | 6.54088 | 787 ft | 62 kts | 12° |
| 2026-05-06 18:00 | 49.67568 | 6.54272 | 741 ft | 10 kts | 31° |
| 2026-05-06 18:00 | 49.67571 | 6.54305 | 741 ft | 1 kts | 156° |
| 2026-05-06 18:01 | 49.67545 | 6.54319 | 740 ft | 7 kts | 166° |
| 2026-05-06 18:01 | 49.67534 | 6.54320 | 740 ft | 0 kts | 187° |